Time;durP1;ratioP1;P1;durP2;ratioP2;P2;SDS_P1;SDS_P2;PMS_P1;PMS_P2;Temp;Humidity;BMP_temperature;BMP_pressure;BME280_temperature;BME280_humidity;BME280_pressure;Samples;Min_cycle;Max_cycle;Signal;HPM_P1;HPM_P2
2021/12/20 00:01:04;;;;;;;37.43;20.73;;;;;;;;;;5084483;28;20188;-74
2021/12/20 00:03:31;;;;;;;33.77;19.00;;;;;;;;;;5087613;28;20177;-74
2021/12/20 00:05:57;;;;;;;36.13;20.43;;;;;;;;;;5085147;28;20444;-73
2021/12/20 00:08:24;;;;;;;35.33;20.27;;;;;;;;;;5081738;28;20188;-74
2021/12/20 00:10:50;;;;;;;34.17;20.07;;;;;;;;;;5078676;28;20189;-74
2021/12/20 00:13:16;;;;;;;35.97;20.77;;;;;;;;;;5085940;28;20211;-73
2021/12/20 00:15:44;;;;;;;34.80;20.17;;;;;;;;;;5085511;28;20236;-73
2021/12/20 00:18:10;;;;;;;35.60;20.23;;;;;;;;;;5083193;28;20553;-74
2021/12/20 00:20:36;;;;;;;33.47;19.13;;;;;;;;;;5085042;28;20249;-73
2021/12/20 00:23:04;;;;;;;32.30;19.10;;;;;;;;;;5085897;28;20191;-74
2021/12/20 00:25:31;;;;;;;37.57;21.33;;;;;;;;;;5084423;28;20219;-73
2021/12/20 00:27:57;;;;;;;31.77;19.10;;;;;;;;;;5078626;28;20341;-74
2021/12/20 00:30:23;;;;;;;36.23;19.97;;;;;;;;;;5070893;28;20199;-73
2021/12/20 00:32:50;;;;;;;31.70;18.93;;;;;;;;;;5078612;28;20177;-73
2021/12/20 00:35:19;;;;;;;34.73;19.87;;;;;;;;;;5068571;28;20224;-73
2021/12/20 00:40:31;;;;;;;39.20;20.47;;;;;;;;;;5086918;28;20176;-74
2021/12/20 00:43:01;;;;;;;37.37;21.67;;;;;;;;;;5071614;28;20511;-73
2021/12/20 00:45:45;;;;;;;37.87;20.50;;;;;;;;;;5072280;28;20675;-74
2021/12/20 00:48:11;;;;;;;32.50;18.50;;;;;;;;;;5071262;28;20204;-74
2021/12/20 00:50:39;;;;;;;35.20;18.87;;;;;;;;;;5070230;28;20656;-74
2021/12/20 00:53:05;;;;;;;33.90;18.37;;;;;;;;;;5073602;28;20251;-74
2021/12/20 00:55:32;;;;;;;38.80;20.80;;;;;;;;;;5086663;28;20201;-73
2021/12/20 00:57:59;;;;;;;35.07;20.37;;;;;;;;;;5088675;28;20667;-74
2021/12/20 01:00:27;;;;;;;36.33;19.77;;;;;;;;;;5090288;28;20268;-74
2021/12/20 01:02:54;;;;;;;41.87;22.90;;;;;;;;;;5090332;28;20181;-74
2021/12/20 01:05:21;;;;;;;35.63;20.80;;;;;;;;;;5089707;28;20763;-74
2021/12/20 01:07:47;;;;;;;36.63;21.47;;;;;;;;;;5089916;28;20184;-74
2021/12/20 01:10:13;;;;;;;37.97;20.60;;;;;;;;;;5074767;28;20181;-74
2021/12/20 01:12:46;;;;;;;32.90;19.17;;;;;;;;;;5070777;28;20699;-74
2021/12/20 01:15:20;;;;;;;35.07;19.83;;;;;;;;;;5082387;28;20201;-73
2021/12/20 01:17:47;;;;;;;36.23;19.70;;;;;;;;;;5086973;28;20659;-74
2021/12/20 01:20:13;;;;;;;38.60;20.70;;;;;;;;;;5091084;28;20737;-74
2021/12/20 01:22:41;;;;;;;37.00;20.53;;;;;;;;;;5088298;28;20605;-73
2021/12/20 01:25:08;;;;;;;35.40;19.33;;;;;;;;;;5071888;28;20189;-74
2021/12/20 01:27:34;;;;;;;32.40;19.00;;;;;;;;;;5072507;28;20193;-74
2021/12/20 01:30:00;;;;;;;33.67;19.47;;;;;;;;;;5081297;28;20189;-74
2021/12/20 01:32:26;;;;;;;35.50;20.47;;;;;;;;;;5060559;28;20220;-74
2021/12/20 01:34:52;;;;;;;33.97;19.73;;;;;;;;;;5073873;28;20323;-74
2021/12/20 01:37:18;;;;;;;36.67;20.27;;;;;;;;;;5090135;28;20197;-74
2021/12/20 01:39:45;;;;;;;34.53;20.00;;;;;;;;;;5081245;28;20181;-74
2021/12/20 01:42:16;;;;;;;32.57;19.37;;;;;;;;;;5087646;28;20267;-74
2021/12/20 01:44:42;;;;;;;34.13;19.77;;;;;;;;;;5083842;28;20208;-74
2021/12/20 01:47:09;;;;;;;35.57;20.03;;;;;;;;;;5066711;28;20241;-74
2021/12/20 01:49:43;;;;;;;38.23;20.97;;;;;;;;;;5085142;28;20481;-74
2021/12/20 01:52:14;;;;;;;34.73;20.33;;;;;;;;;;5082936;28;20181;-74
2021/12/20 01:54:41;;;;;;;38.43;20.67;;;;;;;;;;5081419;28;20254;-73
2021/12/20 01:57:07;;;;;;;40.13;21.33;;;;;;;;;;5074639;28;20231;-73
2021/12/20 01:59:33;;;;;;;38.37;20.57;;;;;;;;;;5070911;28;20230;-74
2021/12/20 02:01:59;;;;;;;33.43;19.53;;;;;;;;;;5062796;28;20185;-74
2021/12/20 02:04:27;;;;;;;30.27;17.87;;;;;;;;;;5071562;28;20223;-74
2021/12/20 02:06:53;;;;;;;33.50;19.43;;;;;;;;;;5074448;28;20708;-74
2021/12/20 02:09:20;;;;;;;34.43;19.13;;;;;;;;;;5072646;28;20180;-74
2021/12/20 02:11:47;;;;;;;33.17;19.53;;;;;;;;;;5071587;28;20177;-74
2021/12/20 02:14:14;;;;;;;33.47;19.07;;;;;;;;;;5087798;28;20675;-74
2021/12/20 02:16:41;;;;;;;35.40;19.30;;;;;;;;;;5069562;28;20292;-73
2021/12/20 02:19:09;;;;;;;34.50;20.40;;;;;;;;;;5074423;28;20173;-74
2021/12/20 02:21:36;;;;;;;35.27;19.37;;;;;;;;;;5053428;28;20644;-73
2021/12/20 02:24:02;;;;;;;35.97;18.47;;;;;;;;;;5070150;28;20337;-74
2021/12/20 02:26:28;;;;;;;31.47;18.77;;;;;;;;;;5088558;28;20485;-74
2021/12/20 02:28:59;;;;;;;33.60;18.83;;;;;;;;;;5089978;28;20212;-74
2021/12/20 02:37:13;;;;;;;33.20;19.40;;;;;;;;;;5070469;28;20704;-74
2021/12/20 02:39:40;;;;;;;31.80;19.23;;;;;;;;;;5079390;28;20188;-74
2021/12/20 02:42:06;;;;;;;28.47;17.67;;;;;;;;;;5073566;28;20187;-74
2021/12/20 02:44:32;;;;;;;32.07;18.00;;;;;;;;;;5090391;28;20705;-73
2021/12/20 02:49:25;;;;;;;31.57;18.30;;;;;;;;;;5089588;28;20652;-74
2021/12/20 02:51:54;;;;;;;33.83;19.77;;;;;;;;;;5090142;28;20176;-74
2021/12/20 02:54:21;;;;;;;31.13;17.80;;;;;;;;;;5085558;28;20224;-73
2021/12/20 02:56:48;;;;;;;37.30;22.00;;;;;;;;;;5086114;28;20575;-74
2021/12/20 02:59:15;;;;;;;38.27;19.73;;;;;;;;;;5085253;28;20180;-74
2021/12/20 03:01:43;;;;;;;31.43;18.67;;;;;;;;;;5089422;28;20183;-74
2021/12/20 03:04:10;;;;;;;31.23;17.97;;;;;;;;;;5090848;28;20196;-74
2021/12/20 03:06:47;;;;;;;34.83;19.70;;;;;;;;;;5072074;28;20188;-74
2021/12/20 03:09:16;;;;;;;31.23;18.20;;;;;;;;;;5089985;28;20186;-73
2021/12/20 03:11:43;;;;;;;31.57;18.67;;;;;;;;;;5090100;28;20542;-74
2021/12/20 03:14:21;;;;;;;30.50;18.23;;;;;;;;;;5075689;28;20555;-74
2021/12/20 03:16:48;;;;;;;42.60;21.67;;;;;;;;;;5094175;28;20748;-74
2021/12/20 03:19:14;;;;;;;31.00;17.87;;;;;;;;;;5093221;28;20205;-74
2021/12/20 03:21:40;;;;;;;35.30;18.63;;;;;;;;;;5093141;28;20627;-74
2021/12/20 03:24:06;;;;;;;31.10;18.43;;;;;;;;;;5086141;28;20680;-73
2021/12/20 03:26:33;;;;;;;31.47;18.47;;;;;;;;;;5088300;28;20180;-74
2021/12/20 03:28:59;;;;;;;32.30;17.80;;;;;;;;;;5094295;28;20598;-74
2021/12/20 03:31:26;;;;;;;35.63;19.27;;;;;;;;;;5093953;28;20670;-73
2021/12/20 03:33:52;;;;;;;35.00;20.87;;;;;;;;;;5058024;28;20192;-74
2021/12/20 03:36:18;;;;;;;28.90;17.63;;;;;;;;;;5090116;28;20187;-74
2021/12/20 03:38:44;;;;;;;35.53;21.50;;;;;;;;;;5088383;28;20177;-74
2021/12/20 03:41:10;;;;;;;34.37;19.50;;;;;;;;;;5085628;28;20211;-74
2021/12/20 03:43:36;;;;;;;34.03;19.33;;;;;;;;;;5090742;28;20200;-74
2021/12/20 03:46:03;;;;;;;34.03;19.33;;;;;;;;;;5071803;28;20195;-74
2021/12/20 03:48:29;;;;;;;28.87;17.50;;;;;;;;;;5087230;28;20197;-74
2021/12/20 03:50:57;;;;;;;33.40;19.13;;;;;;;;;;5071596;28;20207;-74
2021/12/20 03:53:23;;;;;;;32.03;19.10;;;;;;;;;;5085452;28;20199;-74
2021/12/20 03:55:49;;;;;;;32.23;19.30;;;;;;;;;;5091873;28;20710;-74
2021/12/20 03:58:15;;;;;;;32.93;19.33;;;;;;;;;;5089437;28;20258;-73
2021/12/20 04:00:41;;;;;;;34.93;19.67;;;;;;;;;;5092189;28;20188;-74
2021/12/20 04:03:12;;;;;;;32.93;19.47;;;;;;;;;;5091593;28;20523;-74
2021/12/20 04:05:39;;;;;;;33.57;19.00;;;;;;;;;;5086979;28;20189;-74
2021/12/20 04:08:05;;;;;;;35.60;19.07;;;;;;;;;;5088428;28;20191;-74
2021/12/20 04:10:31;;;;;;;33.93;19.93;;;;;;;;;;5091807;28;20183;-74
2021/12/20 04:12:58;;;;;;;32.40;19.27;;;;;;;;;;5092070;28;20193;-74
2021/12/20 04:15:24;;;;;;;34.67;20.00;;;;;;;;;;5090588;28;20200;-74
2021/12/20 04:17:50;;;;;;;32.97;18.83;;;;;;;;;;5093033;28;20206;-74
2021/12/20 04:20:16;;;;;;;29.97;17.97;;;;;;;;;;5091276;28;20662;-74
2021/12/20 04:22:43;;;;;;;33.43;20.43;;;;;;;;;;5092392;28;20709;-74
2021/12/20 04:25:09;;;;;;;30.63;18.47;;;;;;;;;;5090011;28;20207;-74
2021/12/20 04:27:36;;;;;;;33.53;18.80;;;;;;;;;;5090051;28;20663;-74
2021/12/20 04:30:09;;;;;;;29.87;16.93;;;;;;;;;;5079737;28;20701;-74
2021/12/20 04:32:35;;;;;;;32.03;18.70;;;;;;;;;;5093621;28;20196;-74
2021/12/20 04:35:01;;;;;;;34.17;19.47;;;;;;;;;;5091260;28;20239;-74
2021/12/20 04:37:27;;;;;;;31.20;18.43;;;;;;;;;;5092406;28;20208;-74
2021/12/20 04:39:53;;;;;;;37.30;21.27;;;;;;;;;;5090581;28;20183;-74
2021/12/20 04:42:20;;;;;;;33.07;19.33;;;;;;;;;;5084081;28;20193;-74
2021/12/20 04:44:46;;;;;;;34.17;20.03;;;;;;;;;;5082919;28;20208;-74
2021/12/20 04:47:12;;;;;;;31.20;18.60;;;;;;;;;;5091836;28;20552;-74
2021/12/20 04:49:38;;;;;;;34.17;19.80;;;;;;;;;;5086530;28;20648;-74
2021/12/20 04:52:04;;;;;;;35.67;18.90;;;;;;;;;;5083478;28;20185;-74
2021/12/20 04:54:31;;;;;;;31.50;19.23;;;;;;;;;;5087912;28;20250;-74
2021/12/20 04:56:57;;;;;;;30.90;18.67;;;;;;;;;;5087309;28;20290;-74
2021/12/20 04:59:23;;;;;;;34.20;20.03;;;;;;;;;;5087836;28;20177;-74
2021/12/20 05:01:49;;;;;;;33.17;19.53;;;;;;;;;;5071448;28;20207;-74
2021/12/20 05:04:15;;;;;;;35.83;20.57;;;;;;;;;;5087376;28;20227;-74
2021/12/20 05:06:41;;;;;;;34.40;19.97;;;;;;;;;;5092246;28;20267;-74
2021/12/20 05:09:08;;;;;;;31.13;18.53;;;;;;;;;;5090417;28;20191;-74
2021/12/20 05:11:35;;;;;;;35.27;19.30;;;;;;;;;;5083716;28;20188;-74
2021/12/20 05:14:02;;;;;;;35.77;18.77;;;;;;;;;;5082348;28;20216;-74
2021/12/20 05:16:28;;;;;;;33.43;19.17;;;;;;;;;;5090049;28;20235;-74
2021/12/20 05:18:54;;;;;;;34.47;19.80;;;;;;;;;;5071716;28;20193;-74
2021/12/20 05:21:21;;;;;;;32.53;18.60;;;;;;;;;;5090935;28;20725;-74
2021/12/20 05:23:47;;;;;;;33.53;19.40;;;;;;;;;;5090141;28;20184;-74
2021/12/20 05:26:13;;;;;;;28.77;17.80;;;;;;;;;;5085770;28;20710;-74
2021/12/20 05:28:39;;;;;;;33.47;20.00;;;;;;;;;;5088850;28;20180;-74
2021/12/20 05:31:05;;;;;;;30.70;18.17;;;;;;;;;;5086693;28;20599;-74
2021/12/20 05:33:33;;;;;;;29.83;17.90;;;;;;;;;;5091132;28;20290;-74
2021/12/20 05:35:59;;;;;;;33.10;18.67;;;;;;;;;;5089284;28;20715;-74
2021/12/20 05:38:25;;;;;;;31.60;18.33;;;;;;;;;;5086500;28;20209;-74
2021/12/20 05:40:52;;;;;;;34.00;18.50;;;;;;;;;;5087051;28;20339;-74
2021/12/20 05:43:18;;;;;;;28.13;17.67;;;;;;;;;;5087027;28;20180;-74
2021/12/20 05:45:44;;;;;;;33.40;18.70;;;;;;;;;;5084542;28;20192;-74
2021/12/20 05:48:11;;;;;;;31.40;18.57;;;;;;;;;;5086227;28;20268;-74
2021/12/20 05:50:37;;;;;;;32.00;18.17;;;;;;;;;;5084922;28;20202;-74
2021/12/20 05:53:03;;;;;;;31.70;17.60;;;;;;;;;;5082755;28;20184;-74
2021/12/20 05:55:29;;;;;;;34.33;17.60;;;;;;;;;;5088367;28;20637;-74
2021/12/20 05:57:56;;;;;;;33.03;18.57;;;;;;;;;;5073097;28;20208;-74
2021/12/20 06:00:23;;;;;;;34.93;18.97;;;;;;;;;;5091330;28;20176;-74
2021/12/20 06:02:50;;;;;;;28.37;17.17;;;;;;;;;;5091450;28;20192;-74
2021/12/20 06:05:17;;;;;;;32.40;18.83;;;;;;;;;;5090227;28;20207;-74
2021/12/20 06:07:43;;;;;;;31.90;19.60;;;;;;;;;;5090497;28;20184;-73
2021/12/20 06:10:11;;;;;;;30.00;19.00;;;;;;;;;;5088958;28;20229;-74
2021/12/20 06:12:39;;;;;;;33.37;18.47;;;;;;;;;;5085726;28;20242;-74
2021/12/20 06:15:05;;;;;;;30.83;17.37;;;;;;;;;;5085485;28;20291;-74
2021/12/20 06:17:35;;;;;;;33.93;19.50;;;;;;;;;;5087014;28;20557;-74
2021/12/20 06:20:05;;;;;;;32.60;19.03;;;;;;;;;;5088667;28;20533;-74
2021/12/20 06:22:32;;;;;;;32.43;19.17;;;;;;;;;;5088269;28;20180;-74
2021/12/20 06:24:58;;;;;;;31.93;17.70;;;;;;;;;;5071214;28;20537;-74
2021/12/20 06:27:24;;;;;;;31.80;18.53;;;;;;;;;;5085797;28;20601;-73
2021/12/20 06:29:50;;;;;;;31.27;17.60;;;;;;;;;;5093161;28;20647;-74
2021/12/20 06:32:16;;;;;;;29.20;17.20;;;;;;;;;;5083048;28;20192;-74
2021/12/20 06:34:43;;;;;;;31.17;17.50;;;;;;;;;;5079257;28;20297;-74
2021/12/20 06:37:10;;;;;;;33.60;17.97;;;;;;;;;;5083473;28;20644;-73
2021/12/20 06:39:37;;;;;;;30.80;17.07;;;;;;;;;;5087511;28;20221;-74
2021/12/20 06:42:03;;;;;;;36.30;18.93;;;;;;;;;;5089173;28;20180;-74
2021/12/20 06:44:29;;;;;;;28.97;16.87;;;;;;;;;;5088787;28;20904;-74
2021/12/20 06:46:56;;;;;;;33.30;18.30;;;;;;;;;;5083003;28;20188;-74
2021/12/20 06:49:23;;;;;;;29.23;16.80;;;;;;;;;;5089480;28;20187;-74
2021/12/20 06:51:49;;;;;;;33.27;19.00;;;;;;;;;;5089672;28;20665;-74
2021/12/20 06:54:16;;;;;;;30.73;18.00;;;;;;;;;;5089701;28;20287;-74
2021/12/20 06:56:44;;;;;;;33.30;19.17;;;;;;;;;;5064560;28;20216;-74
2021/12/20 06:59:11;;;;;;;29.97;17.33;;;;;;;;;;5085074;28;20180;-74
2021/12/20 07:01:37;;;;;;;32.27;19.50;;;;;;;;;;5083909;28;20663;-74
2021/12/20 07:04:04;;;;;;;34.60;20.17;;;;;;;;;;5083916;28;20193;-74
2021/12/20 07:06:30;;;;;;;35.57;20.17;;;;;;;;;;5090066;28;20553;-74
2021/12/20 07:08:57;;;;;;;35.57;19.03;;;;;;;;;;5088690;28;20203;-74
2021/12/20 07:11:23;;;;;;;30.27;18.73;;;;;;;;;;5088879;28;20628;-74
2021/12/20 07:13:53;;;;;;;35.67;19.03;;;;;;;;;;5088946;28;20586;-74
2021/12/20 07:16:20;;;;;;;32.50;18.07;;;;;;;;;;5088612;28;20202;-74
2021/12/20 07:18:46;;;;;;;31.83;18.23;;;;;;;;;;5088626;28;20299;-74
2021/12/20 07:21:12;;;;;;;32.17;18.87;;;;;;;;;;5089993;28;20181;-74
2021/12/20 07:23:38;;;;;;;37.33;20.97;;;;;;;;;;5087185;28;20300;-74
2021/12/20 07:26:06;;;;;;;36.03;21.80;;;;;;;;;;5084969;28;20264;-74
2021/12/20 07:28:32;;;;;;;39.13;22.70;;;;;;;;;;5085152;28;20270;-73
2021/12/20 07:30:58;;;;;;;38.30;21.70;;;;;;;;;;5079885;28;20212;-77
2021/12/20 07:33:25;;;;;;;36.27;21.00;;;;;;;;;;5092304;28;20180;-81
2021/12/20 07:35:52;;;;;;;35.07;20.07;;;;;;;;;;5074011;28;20223;-76
2021/12/20 07:38:18;;;;;;;37.03;21.17;;;;;;;;;;5089467;28;20200;-76
2021/12/20 07:40:45;;;;;;;34.73;20.63;;;;;;;;;;5089638;28;20538;-78
2021/12/20 07:43:14;;;;;;;32.30;19.90;;;;;;;;;;5089708;28;20207;-79
2021/12/20 07:45:40;;;;;;;36.20;19.73;;;;;;;;;;5089476;28;20209;-78
2021/12/20 07:48:06;;;;;;;40.93;23.13;;;;;;;;;;5071526;28;20556;-75
2021/12/20 07:50:33;;;;;;;42.10;24.07;;;;;;;;;;5090074;28;20275;-73
2021/12/20 07:52:59;;;;;;;38.70;21.77;;;;;;;;;;5090101;28;20180;-76
2021/12/20 07:55:25;;;;;;;37.30;21.67;;;;;;;;;;5087802;28;20654;-76
2021/12/20 07:57:52;;;;;;;33.50;19.80;;;;;;;;;;5081963;28;20228;-75
2021/12/20 08:00:18;;;;;;;30.50;18.20;;;;;;;;;;5092804;28;20172;-74
2021/12/20 08:02:44;;;;;;;35.57;20.43;;;;;;;;;;5089278;28;20176;-75
2021/12/20 08:05:13;;;;;;;37.00;21.37;;;;;;;;;;5088810;28;20682;-75
2021/12/20 08:07:40;;;;;;;37.50;23.93;;;;;;;;;;5084204;28;20185;-75
2021/12/20 08:10:06;;;;;;;38.90;23.13;;;;;;;;;;5094325;28;20177;-75
2021/12/20 08:12:32;;;;;;;36.73;22.47;;;;;;;;;;5087618;28;20283;-75
2021/12/20 08:14:59;;;;;;;34.07;20.47;;;;;;;;;;5068429;28;20212;-75
2021/12/20 08:17:25;;;;;;;37.40;21.03;;;;;;;;;;5088113;28;20737;-75
2021/12/20 08:19:51;;;;;;;37.30;21.70;;;;;;;;;;5090738;28;20177;-75
2021/12/20 08:22:17;;;;;;;38.87;21.33;;;;;;;;;;5088199;28;20683;-75
2021/12/20 08:24:43;;;;;;;36.33;20.73;;;;;;;;;;5089037;28;20205;-75
2021/12/20 08:27:09;;;;;;;39.13;21.80;;;;;;;;;;5087950;28;20192;-75
2021/12/20 08:29:36;;;;;;;39.30;20.67;;;;;;;;;;5089770;28;20606;-75
2021/12/20 08:32:02;;;;;;;41.73;22.13;;;;;;;;;;5057142;28;20192;-75
2021/12/20 08:34:31;;;;;;;37.53;21.43;;;;;;;;;;5090562;28;20228;-79
2021/12/20 08:36:57;;;;;;;31.77;19.87;;;;;;;;;;5074469;28;20211;-77
2021/12/20 08:39:24;;;;;;;36.83;21.10;;;;;;;;;;5087491;28;20185;-75
2021/12/20 08:41:50;;;;;;;40.33;22.17;;;;;;;;;;5090588;28;20180;-77
2021/12/20 08:44:17;;;;;;;38.57;21.17;;;;;;;;;;5088644;28;20203;-80
2021/12/20 08:46:43;;;;;;;42.20;25.13;;;;;;;;;;5069672;28;20184;-79
2021/12/20 08:49:09;;;;;;;37.43;22.17;;;;;;;;;;5092091;28;20185;-79
2021/12/20 08:51:36;;;;;;;33.20;20.67;;;;;;;;;;5090108;28;20765;-78
2021/12/20 08:54:03;;;;;;;37.50;21.67;;;;;;;;;;5090926;28;20199;-78
2021/12/20 08:56:29;;;;;;;36.93;21.67;;;;;;;;;;5089930;28;20257;-77
2021/12/20 08:58:55;;;;;;;37.13;22.30;;;;;;;;;;5074843;28;20196;-74
2021/12/20 09:01:21;;;;;;;35.90;22.20;;;;;;;;;;5091549;28;20176;-75
2021/12/20 09:03:48;;;;;;;34.97;20.50;;;;;;;;;;5092139;28;20632;-74
2021/12/20 09:06:14;;;;;;;38.93;21.53;;;;;;;;;;5070696;28;20237;-74
2021/12/20 09:08:42;;;;;;;41.87;22.10;;;;;;;;;;5090657;28;20234;-74
2021/12/20 09:11:08;;;;;;;31.53;19.87;;;;;;;;;;5088680;28;20213;-75
2021/12/20 09:13:35;;;;;;;33.80;19.50;;;;;;;;;;5091594;28;20184;-75
2021/12/20 09:16:01;;;;;;;35.10;20.20;;;;;;;;;;5090286;28;20232;-74
2021/12/20 09:18:28;;;;;;;33.90;19.67;;;;;;;;;;5088945;28;20216;-75
2021/12/20 09:20:58;;;;;;;30.87;19.10;;;;;;;;;;5091385;28;20186;-75
2021/12/20 09:23:29;;;;;;;30.63;18.67;;;;;;;;;;5088412;28;20564;-75
2021/12/20 09:25:55;;;;;;;34.80;19.43;;;;;;;;;;5089144;28;20741;-75
2021/12/20 09:28:21;;;;;;;33.13;19.77;;;;;;;;;;5088822;28;20177;-77
2021/12/20 09:30:47;;;;;;;30.20;18.30;;;;;;;;;;5083534;28;20644;-75
2021/12/20 09:33:14;;;;;;;28.90;16.83;;;;;;;;;;5070868;28;20191;-75
2021/12/20 09:35:41;;;;;;;25.63;15.63;;;;;;;;;;5089029;28;20223;-75
2021/12/20 09:38:10;;;;;;;25.13;14.27;;;;;;;;;;5084721;28;20212;-77
2021/12/20 09:40:39;;;;;;;21.60;12.70;;;;;;;;;;5088316;28;20663;-77
2021/12/20 09:43:07;;;;;;;24.23;13.20;;;;;;;;;;5096995;28;20746;-78
2021/12/20 09:45:34;;;;;;;25.37;13.43;;;;;;;;;;5087515;28;20227;-77
2021/12/20 09:48:00;;;;;;;23.80;13.20;;;;;;;;;;5087991;28;20180;-77
2021/12/20 09:50:27;;;;;;;21.80;12.93;;;;;;;;;;5086842;28;20208;-77
2021/12/20 09:52:53;;;;;;;20.30;11.07;;;;;;;;;;5085648;28;20195;-77
2021/12/20 09:55:19;;;;;;;19.77;10.73;;;;;;;;;;5051609;28;20584;-76
2021/12/20 09:57:47;;;;;;;20.07;10.20;;;;;;;;;;5086313;28;20236;-77
2021/12/20 10:00:15;;;;;;;20.63;10.60;;;;;;;;;;5086779;28;20180;-76
2021/12/20 10:02:45;;;;;;;19.00;10.30;;;;;;;;;;5089529;28;20180;-76
2021/12/20 10:05:12;;;;;;;19.57;10.03;;;;;;;;;;5088111;28;20215;-77
2021/12/20 10:07:39;;;;;;;16.87;8.27;;;;;;;;;;5089047;28;20623;-77
2021/12/20 10:10:06;;;;;;;16.93;7.43;;;;;;;;;;5088637;28;20226;-76
2021/12/20 10:12:32;;;;;;;13.53;7.00;;;;;;;;;;5085847;28;20651;-76
2021/12/20 10:15:01;;;;;;;12.83;6.53;;;;;;;;;;5088132;28;20672;-76
2021/12/20 10:17:29;;;;;;;10.87;5.43;;;;;;;;;;5071544;28;20201;-76
2021/12/20 10:19:55;;;;;;;10.00;4.67;;;;;;;;;;5086891;28;20180;-77
2021/12/20 10:22:29;;;;;;;13.27;5.20;;;;;;;;;;5087124;28;20173;-77
2021/12/20 10:24:59;;;;;;;14.13;4.80;;;;;;;;;;5088022;28;20222;-78
2021/12/20 10:27:28;;;;;;;11.07;4.83;;;;;;;;;;5090676;28;20723;-78
2021/12/20 10:29:54;;;;;;;12.23;4.03;;;;;;;;;;5073509;28;20184;-78
2021/12/20 10:32:40;;;;;;;9.50;4.47;;;;;;;;;;5089890;28;20168;-82
2021/12/20 10:35:25;;;;;;;9.03;3.87;;;;;;;;;;5088923;28;20223;-76
2021/12/20 10:37:56;;;;;;;8.50;3.40;;;;;;;;;;5088053;28;20197;-77
2021/12/20 10:40:22;;;;;;;10.57;3.77;;;;;;;;;;5069615;28;20185;-79
2021/12/20 10:42:53;;;;;;;10.93;3.73;;;;;;;;;;5090159;28;20176;-80
2021/12/20 10:45:21;;;;;;;9.13;3.57;;;;;;;;;;5091023;28;20218;-78
2021/12/20 10:47:47;;;;;;;7.70;3.70;;;;;;;;;;5054703;28;20189;-77
2021/12/20 10:50:23;;;;;;;12.30;4.00;;;;;;;;;;5090375;28;20184;-77
2021/12/20 10:52:49;;;;;;;9.37;3.80;;;;;;;;;;5087569;28;20180;-77
2021/12/20 10:55:54;;;;;;;10.50;3.47;;;;;;;;;;5086359;28;20690;-74
2021/12/20 10:58:28;;;;;;;13.47;3.40;;;;;;;;;;5010057;28;20217;-76
2021/12/20 11:01:00;;;;;;;11.33;3.47;;;;;;;;;;5035879;28;20193;-76
2021/12/20 11:03:29;;;;;;;9.93;3.60;;;;;;;;;;5054528;28;20192;-75
2021/12/20 11:06:24;;;;;;;12.57;3.50;;;;;;;;;;5086744;28;20280;-78
2021/12/20 11:09:06;;;;;;;7.13;3.33;;;;;;;;;;5093750;28;20192;-79
2021/12/20 11:11:34;;;;;;;11.43;3.33;;;;;;;;;;5090941;28;20226;-79
2021/12/20 11:14:01;;;;;;;8.33;3.33;;;;;;;;;;5054340;28;20192;-78
2021/12/20 11:16:28;;;;;;;10.43;3.17;;;;;;;;;;5094645;28;20204;-78
2021/12/20 11:19:08;;;;;;;8.97;3.47;;;;;;;;;;5057351;28;20269;-78
2021/12/20 11:21:35;;;;;;;15.70;3.40;;;;;;;;;;5088697;28;20659;-78
2021/12/20 11:24:02;;;;;;;10.33;3.40;;;;;;;;;;5085883;28;20231;-78
2021/12/20 11:26:29;;;;;;;8.40;3.40;;;;;;;;;;5091565;28;20260;-78
2021/12/20 11:28:56;;;;;;;13.70;3.30;;;;;;;;;;5077196;28;20199;-78
2021/12/20 11:31:23;;;;;;;8.47;2.80;;;;;;;;;;5072944;28;20192;-78
2021/12/20 11:33:49;;;;;;;10.03;3.33;;;;;;;;;;5089436;28;20204;-79
2021/12/20 11:36:16;;;;;;;8.33;3.30;;;;;;;;;;5093933;28;20233;-79
2021/12/20 11:38:43;;;;;;;8.10;2.73;;;;;;;;;;5076827;28;20251;-79
2021/12/20 11:41:09;;;;;;;8.00;2.90;;;;;;;;;;5094784;28;20188;-79
2021/12/20 11:43:35;;;;;;;9.13;3.07;;;;;;;;;;5057586;28;20192;-77
2021/12/20 11:46:05;;;;;;;11.77;3.37;;;;;;;;;;5091628;28;20713;-77
2021/12/20 11:48:32;;;;;;;9.93;3.10;;;;;;;;;;5074317;28;20176;-78
2021/12/20 11:50:59;;;;;;;9.63;2.97;;;;;;;;;;5092106;28;20279;-77
2021/12/20 11:53:34;;;;;;;10.77;3.10;;;;;;;;;;5092031;28;20263;-77
2021/12/20 11:56:00;;;;;;;10.00;2.83;;;;;;;;;;5089763;28;20215;-77
2021/12/20 11:58:28;;;;;;;13.63;3.13;;;;;;;;;;5089337;28;20204;-77
2021/12/20 12:00:56;;;;;;;7.23;3.00;;;;;;;;;;5052954;28;20597;-77
2021/12/20 12:03:24;;;;;;;8.00;2.70;;;;;;;;;;5093382;28;20176;-77
2021/12/20 12:06:00;;;;;;;9.73;2.93;;;;;;;;;;5093759;28;20204;-77
2021/12/20 12:08:36;;;;;;;9.40;3.37;;;;;;;;;;5072838;28;20231;-77
2021/12/20 12:11:05;;;;;;;7.63;2.90;;;;;;;;;;5056057;28;20558;-77
2021/12/20 12:14:03;;;;;;;10.60;3.03;;;;;;;;;;5074080;28;20181;-77
2021/12/20 12:16:48;;;;;;;10.47;3.20;;;;;;;;;;5074683;28;20663;-77
2021/12/20 12:19:34;;;;;;;11.73;3.10;;;;;;;;;;5075673;28;20291;-77
2021/12/20 12:22:00;;;;;;;7.03;2.50;;;;;;;;;;5075219;28;20196;-77
2021/12/20 12:24:53;;;;;;;8.47;2.80;;;;;;;;;;5092743;28;20287;-77
2021/12/20 12:27:20;;;;;;;10.43;2.73;;;;;;;;;;5072009;28;20730;-77
2021/12/20 12:29:46;;;;;;;7.93;2.70;;;;;;;;;;5089467;28;20233;-77
2021/12/20 12:32:13;;;;;;;10.73;2.93;;;;;;;;;;5089874;28;20181;-77
2021/12/20 12:34:39;;;;;;;7.63;2.70;;;;;;;;;;5090356;28;20216;-77
2021/12/20 12:37:37;;;;;;;10.63;2.53;;;;;;;;;;5071937;28;20247;-77
2021/12/20 12:40:23;;;;;;;10.50;2.90;;;;;;;;;;5087940;28;20249;-77
2021/12/20 12:42:53;;;;;;;8.20;2.77;;;;;;;;;;5088355;28;20237;-77
2021/12/20 12:45:39;;;;;;;6.87;2.57;;;;;;;;;;5086576;28;20188;-77
2021/12/20 12:48:25;;;;;;;9.10;2.93;;;;;;;;;;5053864;28;20413;-77
2021/12/20 12:50:51;;;;;;;15.97;6.33;;;;;;;;;;5090492;28;20554;-77
2021/12/20 12:53:37;;;;;;;12.23;3.87;;;;;;;;;;5086174;28;20293;-77
2021/12/20 12:56:22;;;;;;;11.60;2.90;;;;;;;;;;5090867;28;20279;-77
2021/12/20 12:59:08;;;;;;;11.00;3.00;;;;;;;;;;5089225;28;20215;-77
2021/12/20 13:01:34;;;;;;;14.43;5.60;;;;;;;;;;5088573;28;20686;-77
2021/12/20 13:04:00;;;;;;;10.33;4.60;;;;;;;;;;5071799;28;20537;-77
2021/12/20 13:06:27;;;;;;;7.20;2.77;;;;;;;;;;5090166;28;20588;-77
2021/12/20 13:08:54;;;;;;;9.67;3.63;;;;;;;;;;5091271;28;20241;-77
2021/12/20 13:11:21;;;;;;;8.63;3.10;;;;;;;;;;5088605;28;20183;-77
2021/12/20 13:13:55;;;;;;;8.53;2.70;;;;;;;;;;5090269;28;20181;-77
2021/12/20 13:16:26;;;;;;;7.77;2.60;;;;;;;;;;5088162;28;20192;-77
2021/12/20 13:18:58;;;;;;;5.23;2.23;;;;;;;;;;5089015;28;20215;-77
2021/12/20 13:21:36;;;;;;;7.87;2.93;;;;;;;;;;5089059;28;20188;-77
2021/12/20 13:24:12;;;;;;;8.13;2.70;;;;;;;;;;5089933;28;20211;-77
2021/12/20 13:26:39;;;;;;;6.97;2.80;;;;;;;;;;5090873;28;20181;-77
2021/12/20 13:29:05;;;;;;;8.03;2.50;;;;;;;;;;5091509;28;20698;-77
2021/12/20 13:31:32;;;;;;;7.57;2.67;;;;;;;;;;5090099;28;20192;-78
2021/12/20 13:34:00;;;;;;;10.17;2.60;;;;;;;;;;5089518;28;20577;-77
2021/12/20 13:36:33;;;;;;;8.97;3.13;;;;;;;;;;5089294;28;20176;-77
2021/12/20 13:39:01;;;;;;;7.73;2.57;;;;;;;;;;5072257;28;20754;-77
2021/12/20 13:41:29;;;;;;;11.17;2.80;;;;;;;;;;5088582;28;20234;-77
2021/12/20 13:44:00;;;;;;;6.30;2.50;;;;;;;;;;5088707;28;20172;-77
2021/12/20 13:46:31;;;;;;;9.20;2.80;;;;;;;;;;5088593;28;20651;-77
2021/12/20 13:49:02;;;;;;;5.03;2.10;;;;;;;;;;5088962;28;20184;-77
2021/12/20 13:51:39;;;;;;;9.30;3.03;;;;;;;;;;5062542;28;20188;-77
2021/12/20 13:54:19;;;;;;;9.47;3.07;;;;;;;;;;5091338;28;20480;-77
2021/12/20 13:57:00;;;;;;;8.23;2.50;;;;;;;;;;5087230;28;20184;-77
2021/12/20 13:59:28;;;;;;;9.67;2.60;;;;;;;;;;5088588;28;20552;-77
2021/12/20 14:01:55;;;;;;;11.83;2.80;;;;;;;;;;5090698;28;20173;-77
2021/12/20 14:04:35;;;;;;;8.00;3.00;;;;;;;;;;5072274;28;20208;-78
2021/12/20 14:07:01;;;;;;;6.47;2.93;;;;;;;;;;5070172;28;20325;-78
2021/12/20 14:09:39;;;;;;;7.63;2.73;;;;;;;;;;5070715;28;20200;-77
2021/12/20 14:12:13;;;;;;;9.73;2.50;;;;;;;;;;5069110;28;20192;-77
2021/12/20 14:14:59;;;;;;;6.47;2.90;;;;;;;;;;5086247;28;20248;-77
2021/12/20 14:17:26;;;;;;;9.50;2.80;;;;;;;;;;5073733;28;20211;-77
2021/12/20 14:19:57;;;;;;;10.43;2.60;;;;;;;;;;5072469;28;20192;-77
2021/12/20 14:22:23;;;;;;;9.17;2.90;;;;;;;;;;5090669;28;20172;-77
2021/12/20 14:24:58;;;;;;;10.17;3.20;;;;;;;;;;5064909;28;20292;-77
2021/12/20 14:27:24;;;;;;;11.63;3.23;;;;;;;;;;5084827;28;20191;-77
2021/12/20 14:29:50;;;;;;;14.60;3.07;;;;;;;;;;5090446;28;20279;-77
2021/12/20 14:32:34;;;;;;;9.73;2.70;;;;;;;;;;5064144;28;20866;-79
2021/12/20 14:35:19;;;;;;;8.57;2.50;;;;;;;;;;5083135;28;20212;-77
2021/12/20 14:37:45;;;;;;;9.93;2.70;;;;;;;;;;5088757;28;20185;-77
2021/12/20 14:40:11;;;;;;;9.37;3.10;;;;;;;;;;5090731;28;20616;-77
2021/12/20 14:42:38;;;;;;;9.00;2.70;;;;;;;;;;5103946;28;20176;-76